createdAt,value
2023-01-28T00:02:26.639Z,8.67
2023-01-28T00:04:55.431Z,8.63
2023-01-28T00:07:25.029Z,9.00
2023-01-28T00:09:53.259Z,8.60
2023-01-28T00:12:21.496Z,8.73
2023-01-28T00:14:49.704Z,8.30
2023-01-28T00:17:17.990Z,8.80
2023-01-28T00:19:47.617Z,9.13
2023-01-28T00:22:15.867Z,8.77
2023-01-28T00:24:44.640Z,8.90
2023-01-28T00:27:13.767Z,8.53
2023-01-28T00:29:41.976Z,8.43
2023-01-28T00:32:10.329Z,8.40
2023-01-28T00:34:38.561Z,8.87
2023-01-28T00:37:10.989Z,8.70
2023-01-28T00:39:39.300Z,9.40
2023-01-28T00:42:08.440Z,8.37
2023-01-28T00:44:36.736Z,8.27
2023-01-28T00:47:05.074Z,8.37
2023-01-28T00:49:33.344Z,8.77
2023-01-28T00:52:01.637Z,9.20
2023-01-28T00:54:32.307Z,9.13
2023-01-28T00:57:01.785Z,9.23
2023-01-28T00:59:30.059Z,9.63
2023-01-28T01:02:12.107Z,9.73
2023-01-28T01:04:41.037Z,9.33
2023-01-28T01:07:09.619Z,9.77
2023-01-28T01:09:39.396Z,9.00
2023-01-28T01:12:08.986Z,9.37
2023-01-28T01:14:37.312Z,9.93
2023-01-28T01:17:06.008Z,10.03
2023-01-28T01:19:34.263Z,9.40
2023-01-28T01:22:02.685Z,8.87
2023-01-28T01:24:34.300Z,9.57
2023-01-28T01:27:05.938Z,9.30
2023-01-28T01:29:34.280Z,9.57
2023-01-28T01:32:02.599Z,8.60
2023-01-28T01:34:30.989Z,9.07
2023-01-28T01:36:59.414Z,8.77
2023-01-28T01:39:27.683Z,9.07
2023-01-28T01:41:55.990Z,8.93
2023-01-28T01:44:59.227Z,8.27
2023-01-28T01:47:34.332Z,9.33
2023-01-28T01:50:05.417Z,8.57
2023-01-28T01:52:36.081Z,9.50
2023-01-28T01:55:10.393Z,8.70
2023-01-28T01:57:39.133Z,8.73
2023-01-28T02:00:10.282Z,10.07
2023-01-28T02:02:49.756Z,9.40
2023-01-28T02:05:19.954Z,9.17
2023-01-28T02:07:51.198Z,9.37
2023-01-28T02:10:19.808Z,9.70
2023-01-28T02:12:52.691Z,8.97
2023-01-28T02:15:25.008Z,8.40
2023-01-28T02:17:53.851Z,8.97
2023-01-28T02:20:25.719Z,8.83
2023-01-28T02:23:12.910Z,9.27
2023-01-28T02:26:13.496Z,9.60
2023-01-28T02:28:49.648Z,8.70
2023-01-28T02:31:22.861Z,8.90
2023-01-28T02:33:56.607Z,9.30
2023-01-28T02:36:37.306Z,9.30
2023-01-28T02:39:17.024Z,9.87
2023-01-28T02:41:51.115Z,9.87
2023-01-28T02:44:21.860Z,9.23
2023-01-28T02:47:07.746Z,9.80
2023-01-28T02:49:40.723Z,9.73
2023-01-28T02:52:19.533Z,8.47
2023-01-28T02:54:56.939Z,8.90
2023-01-28T02:57:37.567Z,9.13
2023-01-28T03:00:13.886Z,8.93
2023-01-28T03:02:47.184Z,9.60
2023-01-28T03:05:22.421Z,8.87
2023-01-28T03:07:51.144Z,8.67
2023-01-28T03:10:21.446Z,9.63
2023-01-28T03:13:10.373Z,9.37
2023-01-28T03:16:02.124Z,8.70
2023-01-28T03:18:53.954Z,8.73
2023-01-28T03:21:44.997Z,9.23
2023-01-28T03:24:35.550Z,9.90
2023-01-28T03:27:30.086Z,9.17
2023-01-28T03:30:25.709Z,10.37
2023-01-28T03:33:14.248Z,10.00
2023-01-28T03:36:00.587Z,10.40
2023-01-28T03:38:33.989Z,10.03
2023-01-28T03:41:04.520Z,9.33
2023-01-28T03:43:33.609Z,9.97
2023-01-28T03:46:03.819Z,10.57
2023-01-28T03:48:33.638Z,10.00
2023-01-28T03:51:05.651Z,9.73
2023-01-28T03:53:34.335Z,10.10
2023-01-28T03:56:02.368Z,10.27
2023-01-28T03:58:46.060Z,11.23
2023-01-28T04:01:15.653Z,10.97
2023-01-28T04:03:45.479Z,11.23
2023-01-28T04:06:16.773Z,10.17
2023-01-28T04:09:00.120Z,11.40
2023-01-28T04:11:33.742Z,10.23
2023-01-28T04:14:04.435Z,11.07
2023-01-28T04:16:55.819Z,10.53
2023-01-28T04:19:28.175Z,11.73
2023-01-28T04:21:58.030Z,10.77
2023-01-28T04:24:26.956Z,10.67
2023-01-28T04:26:56.498Z,10.73
2023-01-28T04:29:25.076Z,9.83
2023-01-28T04:31:56.406Z,10.73
2023-01-28T04:34:42.161Z,10.20
2023-01-28T04:37:26.892Z,9.97
2023-01-28T04:40:11.368Z,9.80
2023-01-28T04:42:44.217Z,8.83
2023-01-28T04:45:22.753Z,9.70
2023-01-28T04:48:08.409Z,9.27
2023-01-28T04:51:00.721Z,10.27
2023-01-28T04:53:47.383Z,8.70
2023-01-28T04:56:27.208Z,9.27
2023-01-28T04:58:55.340Z,8.23
2023-01-28T05:01:25.067Z,8.13
2023-01-28T05:03:53.902Z,8.67
2023-01-28T05:06:27.381Z,8.43
2023-01-28T05:08:58.095Z,8.90
2023-01-28T05:11:44.666Z,8.87
2023-01-28T05:14:12.998Z,8.57
2023-01-28T05:17:03.715Z,7.90
2023-01-28T05:19:32.052Z,8.13
2023-01-28T05:22:02.144Z,8.17
2023-01-28T05:24:38.551Z,8.40
2023-01-28T05:27:07.587Z,8.37
2023-01-28T05:29:35.905Z,7.47
2023-01-28T05:32:04.265Z,7.77
2023-01-28T05:34:32.944Z,7.70
2023-01-28T05:37:07.353Z,8.17
2023-01-28T05:39:40.058Z,8.40
2023-01-28T05:42:08.815Z,8.20
2023-01-28T05:44:42.094Z,7.83
2023-01-28T05:47:17.256Z,8.17
2023-01-28T05:50:09.910Z,7.63
2023-01-28T05:52:58.216Z,7.87
2023-01-28T05:55:31.956Z,7.30
2023-01-28T05:58:00.133Z,7.73
2023-01-28T06:00:28.695Z,7.93
2023-01-28T06:02:57.091Z,7.87
2023-01-28T06:05:25.456Z,7.80
2023-01-28T06:07:53.785Z,7.50
2023-01-28T06:10:23.144Z,7.77
2023-01-28T06:12:51.229Z,8.50
2023-01-28T06:15:42.534Z,8.10
2023-01-28T06:18:20.858Z,8.00
2023-01-28T06:20:50.491Z,7.43
2023-01-28T06:23:19.069Z,8.70
2023-01-28T06:25:48.521Z,8.23
2023-01-28T06:28:17.314Z,9.40
2023-01-28T06:30:45.308Z,9.00
2023-01-28T06:33:13.316Z,9.40
2023-01-28T06:35:41.361Z,8.20
2023-01-28T06:38:09.487Z,8.67
2023-01-28T06:40:37.780Z,7.60
2023-01-28T06:43:07.644Z,8.17
2023-01-28T06:45:35.651Z,8.30
2023-01-28T06:48:04.236Z,7.90
2023-01-28T06:50:32.582Z,7.40
2023-01-28T06:53:00.624Z,7.20
2023-01-28T06:55:28.730Z,7.57
2023-01-28T06:57:56.785Z,7.40
2023-01-28T07:00:26.405Z,7.77
2023-01-28T07:02:57.091Z,8.00
2023-01-28T07:05:25.264Z,7.50
2023-01-28T07:07:53.467Z,7.20
2023-01-28T07:10:21.548Z,7.13
2023-01-28T07:12:49.619Z,6.80
2023-01-28T07:15:17.865Z,8.00
2023-01-28T07:17:47.497Z,7.73
2023-01-28T07:20:17.465Z,8.30
2023-01-28T07:22:46.661Z,8.07
2023-01-28T07:25:16.475Z,7.87
2023-01-28T07:27:48.980Z,8.80
2023-01-28T07:30:18.089Z,15.50
2023-01-28T07:32:48.428Z,10.23
2023-01-28T07:35:16.615Z,7.97
2023-01-28T07:37:51.630Z,7.50
2023-01-28T07:40:19.896Z,7.50
2023-01-28T07:42:48.455Z,7.70
2023-01-28T07:45:17.108Z,8.40
2023-01-28T07:47:45.691Z,7.97
2023-01-28T07:50:17.086Z,7.83
2023-01-28T07:52:45.866Z,7.77
2023-01-28T07:55:15.446Z,8.00
2023-01-28T07:57:51.003Z,8.10
2023-01-28T08:00:20.294Z,8.43
2023-01-28T08:02:49.293Z,8.47
2023-01-28T08:05:21.374Z,7.77
2023-01-28T08:07:50.183Z,8.67
2023-01-28T08:10:19.421Z,8.60
2023-01-28T08:12:54.310Z,8.50
2023-01-28T08:15:22.847Z,8.40
2023-01-28T08:17:50.960Z,8.17
2023-01-28T08:20:20.534Z,8.63
2023-01-28T08:22:48.735Z,8.30
2023-01-28T08:25:17.087Z,8.90
2023-01-28T08:27:45.124Z,9.20
2023-01-28T08:30:14.058Z,8.90
2023-01-28T08:32:42.481Z,8.60
2023-01-28T08:35:10.803Z,8.73
2023-01-28T08:37:40.618Z,8.63
2023-01-28T08:40:10.202Z,8.73
2023-01-28T08:42:38.278Z,8.63
2023-01-28T08:45:07.620Z,9.17
2023-01-28T08:47:35.699Z,8.43
2023-01-28T08:50:03.852Z,9.43
2023-01-28T08:52:31.920Z,9.17
2023-01-28T08:55:01.290Z,8.73
2023-01-28T08:57:29.290Z,8.87
2023-01-28T08:59:57.314Z,9.47
2023-01-28T09:02:31.638Z,8.93
2023-01-28T09:05:00.653Z,8.90
2023-01-28T09:07:28.855Z,8.67
2023-01-28T09:09:57.009Z,9.20
2023-01-28T09:12:27.214Z,9.57
2023-01-28T09:14:55.489Z,9.50
2023-01-28T09:17:23.596Z,9.33
2023-01-28T09:19:51.731Z,9.50
2023-01-28T09:22:20.034Z,9.20
2023-01-28T09:24:48.463Z,9.47
2023-01-28T09:27:16.863Z,8.80
2023-01-28T09:29:46.411Z,9.50
2023-01-28T09:32:14.494Z,9.20
2023-01-28T09:34:44.352Z,8.97
2023-01-28T09:37:12.605Z,10.20
2023-01-28T09:39:43.221Z,9.47
2023-01-28T09:42:32.424Z,8.93
2023-01-28T09:45:10.592Z,9.17
2023-01-28T09:47:42.358Z,9.53
2023-01-28T09:50:15.990Z,9.07
2023-01-28T09:52:45.036Z,8.70
2023-01-28T09:55:19.876Z,8.93
2023-01-28T09:57:53.162Z,9.07
2023-01-28T10:00:24.815Z,9.07
2023-01-28T10:03:08.813Z,9.27
2023-01-28T10:05:46.382Z,10.70
2023-01-28T10:08:28.253Z,9.83
2023-01-28T10:11:04.878Z,9.60
2023-01-28T10:13:43.674Z,9.60
2023-01-28T10:16:25.087Z,8.33
2023-01-28T10:18:57.366Z,8.83
2023-01-28T10:21:32.422Z,9.10
2023-01-28T10:24:07.387Z,9.20
2023-01-28T10:26:39.616Z,9.40
2023-01-28T10:29:15.575Z,9.57
2023-01-28T10:31:53.647Z,8.37
2023-01-28T10:34:22.872Z,9.43
2023-01-28T10:36:52.891Z,9.97
2023-01-28T10:39:24.758Z,9.47
2023-01-28T10:41:58.341Z,9.93
2023-01-28T10:44:33.582Z,9.40
2023-01-28T10:47:05.870Z,9.70
2023-01-28T10:49:42.534Z,10.60
2023-01-28T10:52:14.830Z,9.37
2023-01-28T10:54:43.289Z,9.60
2023-01-28T10:57:14.072Z,10.40
2023-01-28T10:59:43.649Z,10.03
2023-01-28T11:02:29.525Z,10.53
2023-01-28T11:05:08.271Z,10.00
2023-01-28T11:07:36.852Z,10.00
2023-01-28T11:10:23.642Z,10.53
2023-01-28T11:12:57.323Z,10.80
2023-01-28T11:15:25.859Z,9.70
2023-01-28T11:17:59.572Z,10.63
2023-01-28T11:20:31.234Z,9.70
2023-01-28T11:22:59.742Z,9.93
2023-01-28T11:25:32.026Z,11.10
2023-01-28T11:28:02.089Z,10.90
2023-01-28T11:30:34.004Z,10.63
2023-01-28T11:33:15.989Z,10.52
2023-01-28T11:35:53.343Z,10.53
2023-01-28T11:38:23.247Z,9.90
2023-01-28T11:40:52.874Z,10.50
2023-01-28T11:43:23.827Z,10.07
2023-01-28T11:45:59.531Z,10.50
2023-01-28T11:48:38.509Z,9.80
2023-01-28T11:51:19.719Z,10.00
2023-01-28T11:54:10.836Z,9.33
2023-01-28T11:56:56.051Z,9.77
2023-01-28T11:59:46.887Z,10.17
2023-01-28T12:02:33.422Z,10.23
2023-01-28T12:05:16.563Z,9.63
2023-01-28T12:07:54.081Z,9.73
2023-01-28T12:10:30.322Z,9.20
2023-01-28T12:13:25.336Z,9.77
2023-01-28T12:16:23.667Z,9.43
2023-01-28T12:19:08.022Z,10.03
2023-01-28T12:22:02.091Z,9.67
2023-01-28T12:24:43.395Z,10.37
2023-01-28T12:27:21.429Z,9.87
2023-01-28T12:29:58.814Z,9.70
2023-01-28T12:32:40.789Z,10.50
2023-01-28T12:35:34.421Z,9.90
2023-01-28T12:38:14.643Z,9.77
2023-01-28T12:40:56.257Z,9.87
2023-01-28T12:43:34.140Z,10.40
2023-01-28T12:46:06.180Z,10.27
2023-01-28T12:48:38.800Z,10.07
2023-01-28T12:51:13.797Z,10.00
2023-01-28T12:53:48.997Z,10.73
2023-01-28T12:56:19.657Z,10.13
2023-01-28T12:58:55.530Z,10.23
2023-01-28T13:01:30.832Z,9.60
2023-01-28T13:04:04.991Z,10.70
2023-01-28T13:06:39.196Z,9.93
2023-01-28T13:09:17.808Z,9.87
2023-01-28T13:11:47.814Z,10.43
2023-01-28T13:14:16.721Z,10.07
2023-01-28T13:16:44.949Z,9.83
2023-01-28T13:19:25.455Z,10.03
2023-01-28T13:21:54.126Z,10.33
2023-01-28T13:24:32.768Z,10.57
2023-01-28T13:27:13.869Z,9.67
2023-01-28T13:29:42.126Z,10.67
2023-01-28T13:32:34.977Z,9.53
2023-01-28T13:35:07.024Z,10.07
2023-01-28T13:37:38.978Z,10.57
2023-01-28T13:40:25.586Z,10.03
2023-01-28T13:43:02.106Z,9.43
2023-01-28T13:45:30.868Z,9.77
2023-01-28T13:48:06.358Z,9.17
2023-01-28T13:50:40.761Z,10.03
2023-01-28T13:53:22.808Z,9.70
2023-01-28T13:55:56.386Z,9.87
2023-01-28T13:58:58.268Z,9.67
2023-01-28T14:01:51.218Z,9.27
2023-01-28T14:05:01.664Z,9.37
2023-01-28T14:07:44.746Z,10.60
2023-01-28T14:10:35.944Z,9.27
2023-01-28T14:13:29.244Z,8.67
2023-01-28T14:16:20.567Z,9.67
2023-01-28T14:18:49.678Z,9.27
2023-01-28T14:21:20.994Z,9.57
2023-01-28T14:23:51.004Z,9.43
2023-01-28T14:26:33.454Z,9.13
2023-01-28T14:29:16.150Z,9.27
2023-01-28T14:31:44.346Z,9.17
2023-01-28T14:34:21.000Z,9.13
2023-01-28T14:36:50.631Z,9.10
2023-01-28T14:39:21.349Z,9.10
2023-01-28T14:41:51.811Z,9.20
2023-01-28T14:44:29.600Z,8.90
2023-01-28T14:47:14.336Z,9.13
2023-01-28T14:49:56.777Z,8.70
2023-01-28T14:53:01.614Z,8.97
2023-01-28T14:55:37.719Z,8.90
2023-01-28T14:58:10.170Z,8.27
2023-01-28T15:00:39.799Z,8.50
2023-01-28T15:03:26.629Z,8.13
2023-01-28T15:06:06.853Z,8.73
2023-01-28T15:08:35.840Z,8.70
2023-01-28T15:11:06.668Z,9.33
2023-01-28T15:13:39.711Z,9.00
2023-01-28T15:16:16.932Z,8.43
2023-01-28T15:18:46.525Z,8.60
2023-01-28T15:21:16.402Z,9.10
2023-01-28T15:23:44.948Z,9.00
2023-01-28T15:26:19.146Z,9.43
2023-01-28T15:28:48.583Z,8.80
2023-01-28T15:31:26.227Z,8.77
2023-01-28T15:34:02.180Z,9.27
2023-01-28T15:36:31.433Z,8.90
2023-01-28T15:38:59.811Z,8.63
2023-01-28T15:41:32.044Z,8.40
2023-01-28T15:44:00.346Z,9.90
2023-01-28T15:46:29.687Z,9.00
2023-01-28T15:49:01.535Z,10.20
2023-01-28T15:51:32.057Z,9.47
2023-01-28T15:54:05.042Z,9.73
2023-01-28T15:56:33.469Z,9.13
2023-01-28T15:59:18.765Z,9.63
2023-01-28T16:01:48.499Z,9.70
2023-01-28T16:04:26.998Z,9.90
2023-01-28T16:06:56.414Z,10.00
2023-01-28T16:09:29.078Z,9.90
2023-01-28T16:12:03.719Z,10.00
2023-01-28T16:14:35.755Z,9.80
2023-01-28T16:17:05.678Z,10.40
2023-01-28T16:19:39.686Z,10.40
2023-01-28T16:22:09.066Z,10.77
2023-01-28T16:24:37.639Z,10.27
2023-01-28T16:27:08.167Z,10.20
2023-01-28T16:29:36.898Z,11.10
2023-01-28T16:32:30.387Z,10.57
2023-01-28T16:34:58.484Z,10.73
2023-01-28T16:40:01.569Z,10.90
2023-01-28T16:42:32.180Z,11.73
2023-01-28T16:45:00.477Z,12.53
2023-01-28T16:47:30.132Z,11.23
2023-01-28T16:49:58.517Z,13.27
2023-01-28T16:52:26.580Z,12.80
2023-01-28T16:54:54.620Z,11.30
2023-01-28T16:57:23.450Z,10.70
2023-01-28T16:59:51.744Z,11.67
2023-01-28T17:02:20.055Z,11.57
2023-01-28T17:04:49.783Z,11.63
2023-01-28T17:07:18.108Z,12.50
2023-01-28T17:09:46.252Z,11.77
2023-01-28T17:12:14.179Z,12.57
2023-01-28T17:14:42.090Z,11.67
2023-01-28T17:17:10.133Z,11.53
2023-01-28T17:19:38.269Z,12.30
2023-01-28T17:22:07.609Z,12.40
2023-01-28T17:24:35.661Z,13.03
2023-01-28T17:27:04.017Z,12.00
2023-01-28T17:29:32.692Z,13.00
2023-01-28T17:32:00.748Z,12.90
2023-01-28T17:34:29.092Z,12.10
2023-01-28T17:36:57.104Z,12.47
2023-01-28T17:39:26.630Z,12.73
2023-01-28T17:41:55.087Z,14.23
2023-01-28T17:44:23.106Z,13.43
2023-01-28T17:46:51.080Z,12.97
2023-01-28T17:49:19.052Z,13.00
2023-01-28T17:51:47.059Z,13.93
2023-01-28T17:54:15.691Z,12.97
2023-01-28T17:56:45.229Z,13.77
2023-01-28T17:59:16.767Z,12.83
2023-01-28T18:01:47.441Z,12.67
2023-01-28T18:04:15.536Z,13.53
2023-01-28T18:06:43.569Z,13.30
2023-01-28T18:09:12.538Z,13.43
2023-01-28T18:11:40.582Z,12.23
2023-01-28T18:14:09.995Z,12.80
2023-01-28T18:16:38.020Z,14.90
2023-01-28T18:19:08.873Z,16.13
2023-01-28T18:21:52.182Z,14.33
2023-01-28T18:24:21.322Z,15.53
2023-01-28T18:26:49.439Z,14.73
2023-01-28T18:29:20.783Z,14.37
2023-01-28T18:31:49.644Z,13.67
2023-01-28T18:34:18.349Z,14.27
2023-01-28T18:36:46.825Z,16.27
2023-01-28T18:39:15.529Z,14.30
2023-01-28T18:41:43.904Z,13.97
2023-01-28T18:44:13.564Z,14.83
2023-01-28T18:46:43.369Z,16.63
2023-01-28T18:49:11.678Z,32.93
2023-01-28T18:51:39.884Z,16.77
2023-01-28T18:54:12.007Z,16.87
2023-01-28T18:56:41.277Z,18.53
2023-01-28T18:59:13.010Z,22.83
2023-01-28T19:01:43.887Z,19.80
2023-01-28T19:04:12.085Z,26.27
2023-01-28T19:06:40.191Z,29.23
2023-01-28T19:09:09.553Z,28.03
2023-01-28T19:11:38.454Z,24.37
2023-01-28T19:14:06.483Z,25.47
2023-01-28T19:16:37.073Z,22.07
2023-01-28T19:19:06.832Z,23.07
2023-01-28T19:21:35.211Z,23.17
2023-01-28T19:24:06.435Z,21.37
2023-01-28T19:26:36.091Z,22.03
2023-01-28T19:29:04.160Z,22.23
2023-01-28T19:31:32.486Z,21.17
2023-01-28T19:34:01.500Z,21.60
2023-01-28T19:36:33.736Z,20.23
2023-01-28T19:39:03.295Z,23.03
2023-01-28T19:41:31.777Z,20.73
2023-01-28T19:44:00.170Z,20.90
2023-01-28T19:46:28.512Z,20.63
2023-01-28T19:48:56.594Z,20.50
2023-01-28T19:51:24.911Z,22.60
2023-01-28T19:53:55.935Z,23.53
2023-01-28T19:56:25.892Z,25.10
2023-01-28T19:58:55.377Z,27.10
2023-01-28T20:01:27.289Z,28.53
2023-01-28T20:03:59.733Z,29.87
2023-01-28T20:06:29.332Z,40.70
2023-01-28T20:09:00.998Z,30.53
2023-01-28T20:11:29.132Z,43.43
2023-01-28T20:13:57.488Z,31.40
2023-01-28T20:16:26.828Z,29.80
2023-01-28T20:18:56.547Z,32.07
2023-01-28T20:21:25.027Z,33.50
2023-01-28T20:23:54.311Z,35.53
2023-01-28T20:26:26.320Z,34.63
2023-01-28T20:28:54.389Z,31.70
2023-01-28T20:31:22.505Z,29.43
2023-01-28T20:33:50.696Z,30.10
2023-01-28T20:36:18.732Z,26.83
2023-01-28T20:38:48.934Z,28.07
2023-01-28T20:41:20.090Z,29.43
2023-01-28T20:43:51.070Z,28.93
2023-01-28T20:46:20.480Z,29.07
2023-01-28T20:48:49.347Z,30.10
2023-01-28T20:51:19.510Z,29.30
2023-01-28T20:53:48.717Z,30.40
2023-01-28T20:56:19.430Z,29.00
2023-01-28T20:58:50.004Z,29.03
2023-01-28T21:01:19.298Z,31.80
2023-01-28T21:03:47.425Z,31.67
2023-01-28T21:06:16.089Z,32.73
2023-01-28T21:08:45.125Z,34.40
2023-01-28T21:11:14.108Z,34.70
2023-01-28T21:13:42.545Z,38.37
2023-01-28T21:16:11.965Z,36.80
2023-01-28T21:18:40.150Z,35.70
2023-01-28T21:21:11.736Z,35.33
2023-01-28T21:23:39.959Z,31.87
2023-01-28T21:26:08.232Z,31.83
2023-01-28T21:28:36.409Z,29.70
2023-01-28T21:31:09.227Z,30.67
2023-01-28T21:33:39.047Z,28.73
2023-01-28T21:36:12.020Z,28.50
2023-01-28T21:41:26.255Z,28.57
2023-01-28T21:43:57.194Z,28.30
2023-01-28T21:46:28.425Z,25.80
2023-01-28T21:48:59.505Z,26.43
2023-01-28T21:51:39.284Z,27.73
2023-01-28T21:54:10.803Z,28.70
2023-01-28T21:56:39.188Z,27.03
2023-01-28T21:59:24.838Z,28.13
2023-01-28T22:01:52.919Z,27.57
2023-01-28T22:04:23.064Z,27.53
2023-01-28T22:06:51.021Z,26.17
2023-01-28T22:09:19.268Z,26.40
2023-01-28T22:11:47.549Z,26.17
2023-01-28T22:14:16.101Z,26.63
2023-01-28T22:16:44.188Z,28.87
2023-01-28T22:19:12.752Z,30.57
2023-01-28T22:21:44.145Z,29.70
2023-01-28T22:24:14.045Z,32.73
2023-01-28T22:26:43.266Z,32.33
2023-01-28T22:29:11.712Z,31.80
2023-01-28T22:31:40.646Z,30.57
2023-01-28T22:34:09.030Z,28.77
2023-01-28T22:36:37.304Z,28.20
2023-01-28T22:39:08.485Z,26.57
2023-01-28T22:41:36.515Z,26.37
2023-01-28T22:44:04.971Z,26.43
2023-01-28T22:46:34.168Z,27.03
2023-01-28T22:49:03.302Z,25.60
2023-01-28T22:51:32.818Z,24.87
2023-01-28T22:54:01.160Z,24.27
2023-01-28T22:56:31.706Z,24.07
2023-01-28T22:59:02.595Z,24.30
2023-01-28T23:01:31.286Z,24.17
2023-01-28T23:03:59.748Z,23.73
2023-01-28T23:06:30.019Z,23.40
2023-01-28T23:08:58.233Z,22.63
2023-01-28T23:11:27.648Z,25.03
2023-01-28T23:14:17.073Z,22.90
2023-01-28T23:17:03.440Z,23.63
2023-01-28T23:19:49.627Z,23.17
2023-01-28T23:22:40.827Z,22.67
2023-01-28T23:25:10.179Z,22.60
2023-01-28T23:27:38.199Z,22.23
2023-01-28T23:30:10.027Z,22.80
2023-01-28T23:32:39.979Z,24.17
2023-01-28T23:35:09.008Z,23.67
2023-01-28T23:37:37.137Z,24.23
2023-01-28T23:40:06.263Z,23.33
2023-01-28T23:42:34.543Z,22.73
2023-01-28T23:45:02.879Z,23.30
2023-01-28T23:47:32.384Z,23.43
2023-01-28T23:50:00.919Z,24.10
2023-01-28T23:52:29.025Z,24.47
2023-01-28T23:54:57.164Z,24.17
2023-01-28T23:57:25.809Z,23.60
2023-01-28T23:59:53.943Z,23.57
